createdAt,value
2022-11-21T00:04:07.739Z,7.40
2022-11-21T00:11:08.282Z,7.50
2022-11-21T00:18:08.772Z,7.50
2022-11-21T00:25:09.774Z,7.60
2022-11-21T00:32:10.092Z,7.50
2022-11-21T00:39:10.361Z,7.60
2022-11-21T00:46:10.705Z,7.50
2022-11-21T00:53:11.216Z,7.60
2022-11-21T01:00:12.498Z,7.50
2022-11-21T01:07:14.627Z,7.40
2022-11-21T01:14:15.230Z,7.40
2022-11-21T01:21:35.958Z,7.30
2022-11-21T01:28:36.852Z,7.30
2022-11-21T01:35:36.899Z,7.30
2022-11-21T01:43:09.644Z,7.30
2022-11-21T01:50:12.977Z,7.20
2022-11-21T01:57:48.091Z,7.20
2022-11-21T02:04:49.711Z,7.20
2022-11-21T02:11:55.694Z,7.10
2022-11-21T02:18:55.979Z,7.10
2022-11-21T02:25:56.317Z,7.00
2022-11-21T02:32:56.662Z,7.00
2022-11-21T02:40:01.474Z,6.90
2022-11-21T02:47:01.834Z,6.70
2022-11-21T02:54:02.304Z,6.60
2022-11-21T03:01:02.842Z,6.50
2022-11-21T03:08:04.121Z,6.40
2022-11-21T03:15:06.644Z,6.40
2022-11-21T03:22:07.026Z,6.30
2022-11-21T03:29:07.335Z,6.30
2022-11-21T03:36:07.846Z,6.20
2022-11-21T03:43:08.227Z,6.20
2022-11-21T03:50:09.822Z,6.10
2022-11-21T03:57:10.279Z,6.00
2022-11-21T04:04:10.504Z,6.00
2022-11-21T04:11:11.169Z,6.10
2022-11-21T04:18:12.097Z,6.10
2022-11-21T04:25:13.632Z,6.10
2022-11-21T04:32:13.929Z,6.10
2022-11-21T04:39:14.567Z,6.10
2022-11-21T04:46:15.063Z,6.00
2022-11-21T04:53:15.417Z,6.00
2022-11-21T05:00:22.502Z,6.00
2022-11-21T05:07:24.493Z,6.10
2022-11-21T05:14:26.593Z,6.10
2022-11-21T05:21:27.267Z,6.00
2022-11-21T05:28:27.704Z,6.00
2022-11-21T05:35:28.190Z,6.10
2022-11-21T05:42:47.054Z,6.00
2022-11-21T05:49:47.387Z,6.10
2022-11-21T05:56:47.660Z,6.10
2022-11-21T06:03:47.993Z,6.10
2022-11-21T06:10:48.680Z,6.00
2022-11-21T06:17:59.368Z,6.00
2022-11-21T06:24:59.679Z,6.00
2022-11-21T06:32:00.041Z,6.10
2022-11-21T06:39:00.343Z,6.10
2022-11-21T06:46:03.135Z,6.10
2022-11-21T06:53:03.607Z,6.20
2022-11-21T07:00:05.381Z,6.20
2022-11-21T07:07:05.778Z,6.20
2022-11-21T07:14:09.151Z,6.20
2022-11-21T07:21:09.932Z,6.20
2022-11-21T07:28:10.955Z,6.40
2022-11-21T07:35:11.307Z,6.50
2022-11-21T07:42:11.654Z,6.50
2022-11-21T07:49:12.187Z,6.50
2022-11-21T07:56:26.754Z,6.60
2022-11-21T08:03:27.119Z,6.60
2022-11-21T08:10:27.550Z,6.60
2022-11-21T08:17:28.195Z,6.70
2022-11-21T08:24:28.219Z,6.70
2022-11-21T08:31:28.570Z,6.80
2022-11-21T08:38:28.903Z,6.80
2022-11-21T08:45:29.835Z,6.90
2022-11-21T08:52:29.872Z,6.80
2022-11-21T08:59:30.547Z,6.90
2022-11-21T09:06:31.312Z,6.90
2022-11-21T09:13:32.106Z,6.90
2022-11-21T09:20:36.647Z,6.90
2022-11-21T09:27:37.155Z,6.90
2022-11-21T09:34:37.717Z,7.00
2022-11-21T09:42:19.071Z,7.20
2022-11-21T09:49:22.396Z,7.30
2022-11-21T09:56:23.935Z,7.40
2022-11-21T10:03:29.239Z,7.50
2022-11-21T10:10:47.006Z,7.60
2022-11-21T10:18:08.652Z,7.70
2022-11-21T10:25:26.834Z,7.90
2022-11-21T10:32:37.412Z,8.10
2022-11-21T10:39:50.902Z,8.20
2022-11-21T10:46:59.872Z,8.20
2022-11-21T10:54:30.172Z,8.40
2022-11-21T11:01:35.432Z,8.50
2022-11-21T11:08:55.947Z,8.60
2022-11-21T11:16:05.648Z,8.70
2022-11-21T11:23:25.489Z,8.80
2022-11-21T11:30:27.454Z,8.90
2022-11-21T11:37:41.442Z,9.00
2022-11-21T11:45:25.744Z,9.30
2022-11-21T11:52:31.610Z,9.40
2022-11-21T11:59:39.930Z,9.60
2022-11-21T12:08:33.106Z,9.70
2022-11-21T12:15:11.306Z,9.80
2022-11-21T12:22:11.937Z,9.80
2022-11-21T12:29:31.107Z,9.90
2022-11-21T12:36:41.644Z,9.90
2022-11-21T12:43:53.179Z,9.90
2022-11-21T12:51:28.163Z,9.90
2022-11-21T12:58:44.449Z,9.80
2022-11-21T13:05:51.839Z,9.70
2022-11-21T13:13:13.484Z,9.60
2022-11-21T13:20:35.572Z,9.60
2022-11-21T13:27:39.317Z,9.70
2022-11-21T13:34:40.780Z,9.80
2022-11-21T13:42:20.731Z,9.70
2022-11-21T13:49:25.430Z,9.70
2022-11-21T13:56:28.876Z,9.60
2022-11-21T14:03:31.792Z,9.60
2022-11-21T14:10:34.211Z,9.50
2022-11-21T14:17:50.099Z,9.40
2022-11-21T14:24:53.087Z,9.30
2022-11-21T14:31:54.001Z,9.20
2022-11-21T14:39:28.900Z,9.10
2022-11-21T14:46:21.803Z,9.00
2022-11-21T14:53:22.252Z,8.90
2022-11-21T15:07:50.175Z,8.60
2022-11-21T15:15:05.682Z,8.50
2022-11-21T15:22:06.300Z,8.40
2022-11-21T15:29:19.907Z,8.20
2022-11-21T15:36:20.506Z,8.10
2022-11-21T15:43:40.937Z,8.00
2022-11-21T15:50:41.449Z,7.80
2022-11-21T15:57:43.304Z,7.80
2022-11-21T16:04:43.912Z,7.70
2022-11-21T16:11:45.158Z,7.60
2022-11-21T16:18:47.033Z,7.50
2022-11-21T16:25:54.732Z,7.50
2022-11-21T16:32:56.255Z,7.40
2022-11-21T16:39:56.662Z,7.40
2022-11-21T16:46:57.120Z,7.40
2022-11-21T16:54:00.673Z,7.30
2022-11-21T17:01:16.374Z,7.30
2022-11-21T17:08:18.000Z,7.30
2022-11-21T17:15:18.392Z,7.30
2022-11-21T17:22:24.399Z,7.30
2022-11-21T17:29:25.011Z,7.30
2022-11-21T17:36:27.436Z,7.30
2022-11-21T17:43:27.912Z,7.20
2022-11-21T17:50:28.528Z,7.20
2022-11-21T17:57:28.773Z,7.20
2022-11-21T18:04:29.547Z,7.20
2022-11-21T18:11:38.926Z,7.20
2022-11-21T18:18:40.370Z,7.10
2022-11-21T18:25:40.847Z,7.10
2022-11-21T18:32:41.106Z,7.00
2022-11-21T18:39:41.702Z,7.00
2022-11-21T18:46:42.149Z,7.00
2022-11-21T18:53:43.210Z,7.00
2022-11-21T19:00:43.234Z,7.00
2022-11-21T19:07:43.639Z,7.00
2022-11-21T19:14:43.769Z,7.00
2022-11-21T19:21:45.508Z,7.00
2022-11-21T19:28:46.202Z,7.00
2022-11-21T19:35:46.434Z,7.00
2022-11-21T19:42:46.940Z,7.10
2022-11-21T19:49:47.317Z,7.10
2022-11-21T19:56:47.790Z,7.10
2022-11-21T20:03:50.659Z,7.10
2022-11-21T20:10:51.055Z,7.20
2022-11-21T20:17:52.317Z,7.20
2022-11-21T20:24:52.496Z,7.30
2022-11-21T20:31:54.108Z,7.30
2022-11-21T20:39:14.803Z,7.30
2022-11-21T20:46:20.184Z,7.20
2022-11-21T20:53:50.732Z,7.20
2022-11-21T21:00:42.015Z,7.20
2022-11-21T21:07:42.229Z,7.20
2022-11-21T21:14:42.580Z,7.30
2022-11-21T21:21:43.165Z,7.20
2022-11-21T21:28:44.518Z,7.20
2022-11-21T21:35:45.238Z,7.20
2022-11-21T21:42:45.512Z,7.10
2022-11-21T21:49:45.735Z,7.20
2022-11-21T21:56:47.208Z,7.10
2022-11-21T22:03:48.230Z,7.10
2022-11-21T22:10:48.677Z,7.10
2022-11-21T22:17:49.192Z,7.10
2022-11-21T22:24:49.474Z,7.10
2022-11-21T22:31:51.030Z,7.10
2022-11-21T22:38:55.597Z,7.10
2022-11-21T22:45:58.886Z,7.10
2022-11-21T22:52:59.754Z,7.10
2022-11-21T22:59:59.976Z,7.10
2022-11-21T23:07:00.102Z,7.10
2022-11-21T23:14:00.651Z,7.10
2022-11-21T23:21:01.410Z,7.00
2022-11-21T23:28:01.760Z,7.00
2022-11-21T23:35:02.162Z,6.90
2022-11-21T23:42:02.666Z,6.90
2022-11-21T23:49:03.092Z,6.80
2022-11-21T23:56:04.136Z,6.80
